Historyczne dane pomiarowe

Dodano dane terminowe – wersja testowa.

Dane z okresu 1951-2019

Wersja bazy: 1.34 [2019-03-16, lista zmian], aktualizacja planowana na 2019-04-15

Dane meteo z obszaru Polski uzyskane na podstawie danych udostępnionych przez Instytut Meteorologii i Gospodarki Wodnej – Państwowy Instytut Badawczy.

 

Wybierz Datę:    

       

TemperaturaWilgotnośćWiatrCiśnienieOpadyŚniegCzas trwania zjawisk
 Stacja t tx tn tng RH VA  wxwx mslp ppp RRR   cm mm wxwxwxwxwxwxwx
1983-08-14 13.7 17.5 9.1 6.6 68.8- 0.7 5.7---- 0.0------------
1983-08-13 14.7 20.5 13.2 8.8 77.8- 5.3 5.7---- 0.3------------
1983-08-12 19.4 26.0 12.0 7.4 72.5- 0.7 2.7---- 0.0------------
1983-08-11 20.1 27.0 10.3 6.0 70.8- 0.0 2.3---- 0.0------------
1983-08-10 19.3 26.0 10.2 4.7 68.8- 0.0 2.3---- 0.0------------
1983-08-09 20.1 25.3 14.1 9.3 73.0- 0.0 2.7---- 0.0------------
1983-08-08 20.4 27.1 15.5 12.5 82.5- 0.3 3.0---- 0.0------------
1983-08-07 19.7 26.2 15.3 11.3 80.5- 2.7 3.3---- 0.0------------
1983-08-06 18.2 23.6 14.6 13.9 75.3- 3.0 2.0---- 0.0------------
1983-08-05 15.1 18.7 13.5 13.5 89.8- 5.3 1.7---- 1.4------------
1983-08-04 19.1 24.7 15.9 13.3 84.0- 6.0 2.7---- 12.4------------
1983-08-03 20.5 27.2 13.9 7.2 66.5- 0.7 5.0---- 0.6------------
1983-08-02 20.0 26.5 12.5 7.0 62.5- 0.0 2.7---- 0.0------------
1983-08-01 18.7 25.9 9.0 4.9 68.8- 0.0 2.3---- 0.0------------
1983-07-31 17.0 22.6 11.3 7.2 79.0- 1.7 2.0---- 0.0------------
1983-07-30 15.9 19.0 13.4 7.8 83.3- 6.0 8.3---- 0.0------------
1983-07-29 17.3 21.3 15.3 13.4 84.0- 5.3 2.7---- 0.0------------
1983-07-28 19.2 24.9 15.9 12.5 85.0- 4.3 4.0---- 0.0------------
1983-07-27 20.7 27.6 13.7 10.8 84.0- 2.7 1.7---- 0.4------------
1983-07-26 20.7 27.0 15.7 14.2 82.0- 3.3 3.7---- 8.7------------
1983-07-25 14.2 17.9 9.3 5.2 90.8- 6.0 4.3---- 10.6------------
1983-07-24 15.2 20.4 8.6 6.4 81.0- 1.7 4.3---- 0.0------------
1983-07-23 14.6 19.7 10.1 8.1 90.0- 5.7 3.7---- 14.4------------
1983-07-22 13.5 18.4 9.4 7.5 77.0- 5.3 2.7---- 4.0------------
1983-07-21 10.6 15.8 7.4 2.1 80.0- 5.7 4.0---- 4.8------------
1983-07-20 12.0 19.3 9.7 4.2 87.3- 3.3 3.0---- 9.4------------
1983-07-19 18.7 24.1 15.8 11.9 82.0- 5.3 3.0---- 5.2------------
1983-07-18 18.8 26.0 7.8 2.7 64.0- 0.0 2.7---- 0.0------------
1983-07-17 17.9 23.6 9.0 4.2 73.8- 0.0 1.7---- 0.0------------
1983-07-16 18.7 27.0 9.8 4.6 77.3- 4.7 2.7---- 1.6------------
1983-07-15 18.4 25.2 10.9 6.0 67.8- 0.3 2.0---- 0.0------------
1983-07-14 19.2 23.1 17.3 14.7 85.3- 1.3 3.7---- 0.0------------
1983-07-13 19.2 25.2 12.0 8.5 82.3- 2.0 1.3---- 0.3------------
1983-07-12 19.2 23.7 16.6 12.7 85.3- 0.0 2.3---- 0.3------------
1983-07-11 19.5 26.2 14.1 10.4 81.3- 4.0 3.0---- 2.9------------
1983-07-10 20.7 26.2 13.3 8.8 75.0- 0.3 2.0---- 0.0------------
1983-07-09 19.4 26.4 11.7 5.7 75.5- 0.0 2.7---- 9.7------------
1983-07-08 17.7 22.7 8.3 1.5 75.0- 0.0 2.7---- 0.0------------
1983-07-07 17.0 22.6 8.5 1.9 65.3- 0.0 3.3---- 0.0------------
1983-07-06 16.6 21.9 7.9 3.0 76.3- 0.3 2.0---- 0.0------------
1983-07-05 16.4 21.5 7.6 1.8 75.0- 0.3 2.7---- 0.0------------
1983-07-04 18.0 23.9 11.8 7.0 72.5- 1.3 3.0---- 0.0------------
1983-07-03 15.4 22.3 4.5 -0.7 78.5- 0.3 1.7---- 0.0------------
1983-07-02 16.7 21.6 12.9 9.4 84.8- 3.3 3.3---- 0.0------------
1983-07-01 18.7 23.5 10.5 4.6 73.3- 2.7 3.3---- 0.0------------
1983-06-30 15.7 22.3 6.0 1.6 65.3- 0.3 3.3---- 0.0------------
1983-06-29 14.2 19.4 6.9 3.1 73.0- 0.3 3.3---- 0.0------------
1983-06-28 14.8 17.6 13.1 10.9 94.8- 6.7 3.3---- 15.2------------
1983-06-27 16.0 21.9 7.6 1.8 82.3- 5.3 2.0---- 3.2------------
1983-06-26 16.0 21.9 9.6 3.4 77.0- 1.7 1.3---- 0.0------------
1983-06-25 17.3 25.2 6.6 1.6 73.3- 2.7 2.7---- 0.0------------
1983-06-24 15.8 24.5 3.5 -1.8 60.3- 0.0 3.3---- 0.0------------
1983-06-23 12.8 20.6 1.7 -3.4 66.8- 0.3 1.3---- 0.0------------
1983-06-22 10.7 15.4 2.9 -3.3 70.0- 0.3 1.3---- 0.0------------
1983-06-21 14.4 20.4 10.6 5.6 73.5- 2.0 3.7---- 0.0------------
1983-06-20 18.3 22.6 12.3 9.8 69.5- 0.3 3.3---- 0.0------------
1983-06-19 17.3 20.7 13.9 12.1 80.8- 1.7 4.7---- 0.0------------
1983-06-18 14.4 18.6 11.2 8.9 85.0- 1.3 3.0---- 0.0------------
1983-06-17 14.3 19.7 11.2 10.1 75.8- 2.7 4.0---- 0.0------------
1983-06-16 12.9 15.4 11.4 10.9 91.8- 5.3 6.3---- 5.2------------
271.6 ms

 

Źródłem pochodzenia danych jest Instytut Meteorologii i Gospodarki Wodnej – Państwowy Instytut Badawczy. Dane Instytutu Meteorologii i Gospodarki Wodnej – Państwowego Instytutu Badawczego zostały przetworzone.

Dane źródłowe można odnaleźć na stronie https://dane.imgw.pl